createdAt,value
2023-01-31T00:01:50.343Z,101839.56
2023-01-31T00:04:17.200Z,101842.31
2023-01-31T00:06:50.791Z,101835.28
2023-01-31T00:09:17.808Z,101829.06
2023-01-31T00:11:44.699Z,101835.16
2023-01-31T00:14:19.247Z,101823.22
2023-01-31T00:16:48.185Z,101821.59
2023-01-31T00:19:15.203Z,101819.09
2023-01-31T00:21:43.781Z,101815.78
2023-01-31T00:24:12.882Z,101814.94
2023-01-31T00:26:39.926Z,101825.75
2023-01-31T00:29:06.899Z,101827.66
2023-01-31T00:31:35.331Z,101823.56
2023-01-31T00:34:03.951Z,101813.44
2023-01-31T00:36:34.829Z,101819.69
2023-01-31T00:39:05.445Z,101816.06
2023-01-31T00:41:33.155Z,101809.69
2023-01-31T00:44:00.824Z,101814.16
2023-01-31T00:46:28.229Z,101823.00
2023-01-31T00:48:56.663Z,101823.97
2023-01-31T00:51:26.995Z,101823.28
2023-01-31T00:53:54.852Z,101819.97
2023-01-31T00:56:24.487Z,101827.03
2023-01-31T00:58:51.920Z,101827.84
2023-01-31T01:01:22.542Z,101821.63
2023-01-31T01:03:49.508Z,101820.66
2023-01-31T01:06:16.882Z,101821.31
2023-01-31T01:08:46.135Z,101819.41
2023-01-31T01:11:16.784Z,101834.88
2023-01-31T01:13:45.230Z,101827.66
2023-01-31T01:16:16.945Z,101837.22
2023-01-31T01:18:46.449Z,101834.59
2023-01-31T01:21:17.169Z,101839.03
2023-01-31T01:23:49.739Z,101832.94
2023-01-31T01:26:20.175Z,101836.72
2023-01-31T01:28:48.796Z,101841.81
2023-01-31T01:31:18.177Z,101834.75
2023-01-31T01:33:46.986Z,101833.50
2023-01-31T01:36:18.028Z,101826.16
2023-01-31T01:38:46.262Z,101837.38
2023-01-31T01:41:14.241Z,101830.44
2023-01-31T01:43:47.884Z,101836.00
2023-01-31T01:46:22.725Z,101825.47
2023-01-31T01:48:54.736Z,101834.59
2023-01-31T01:51:23.302Z,101847.75
2023-01-31T01:53:59.055Z,101840.97
2023-01-31T01:56:32.357Z,101841.13
2023-01-31T01:59:06.897Z,101849.31
2023-01-31T02:01:38.243Z,101861.78
2023-01-31T02:04:13.089Z,101858.47
2023-01-31T02:06:41.165Z,101853.19
2023-01-31T02:09:20.240Z,101856.09
2023-01-31T02:11:47.992Z,101859.41
2023-01-31T02:14:16.862Z,101854.84
2023-01-31T02:16:43.750Z,101861.50
2023-01-31T02:19:22.447Z,101864.13
2023-01-31T02:22:14.282Z,101873.81
2023-01-31T02:25:57.137Z,101880.59
2023-01-31T02:29:17.591Z,101878.63
2023-01-31T02:32:17.662Z,101878.91
2023-01-31T02:34:55.954Z,101869.75
2023-01-31T02:37:33.103Z,101868.34
2023-01-31T02:40:16.772Z,101869.03
2023-01-31T02:42:58.355Z,101869.44
2023-01-31T02:45:39.200Z,101864.19
2023-01-31T02:48:19.387Z,101860.03
2023-01-31T02:51:00.316Z,101869.72
2023-01-31T02:53:33.874Z,101866.41
2023-01-31T02:56:17.982Z,101864.09
2023-01-31T02:58:54.984Z,101870.31
2023-01-31T03:01:28.871Z,101858.66
2023-01-31T03:04:03.243Z,101854.91
2023-01-31T03:07:02.514Z,101846.34
2023-01-31T03:09:51.408Z,101841.22
2023-01-31T03:12:49.188Z,101835.44
2023-01-31T03:16:02.095Z,101837.66
2023-01-31T03:18:37.042Z,101829.34
2023-01-31T03:21:10.218Z,101811.88
2023-01-31T03:23:40.975Z,101817.16
2023-01-31T03:26:09.611Z,101819.66
2023-01-31T03:28:42.250Z,101811.88
2023-01-31T03:31:18.938Z,101823.84
2023-01-31T03:33:52.454Z,101823.28
2023-01-31T03:36:33.149Z,101828.00
2023-01-31T03:39:13.752Z,101827.19
2023-01-31T03:41:56.829Z,101824.53
2023-01-31T03:44:36.166Z,101827.47
2023-01-31T03:47:11.445Z,101831.34
2023-01-31T03:49:42.520Z,101822.50
2023-01-31T03:52:18.006Z,101829.00
2023-01-31T03:54:54.093Z,101830.94
2023-01-31T03:57:25.299Z,101823.66
2023-01-31T03:59:57.463Z,101823.25
2023-01-31T04:02:33.381Z,101821.72
2023-01-31T04:05:07.982Z,101820.88
2023-01-31T04:07:37.421Z,101816.75
2023-01-31T04:10:12.011Z,101823.94
2023-01-31T04:12:39.454Z,101832.66
2023-01-31T04:15:08.647Z,101823.09
2023-01-31T04:17:35.899Z,101812.59
2023-01-31T04:20:04.205Z,101832.78
2023-01-31T04:22:31.069Z,101825.88
2023-01-31T04:24:59.385Z,101822.41
2023-01-31T04:27:26.329Z,101828.63
2023-01-31T04:29:53.289Z,101829.34
2023-01-31T04:32:20.171Z,101815.91
2023-01-31T04:34:47.059Z,101824.47
2023-01-31T04:37:14.002Z,101822.56
2023-01-31T04:39:40.856Z,101809.41
2023-01-31T04:42:09.542Z,101809.25
2023-01-31T04:44:36.616Z,101817.97
2023-01-31T04:47:03.757Z,101816.31
2023-01-31T04:49:30.630Z,101815.34
2023-01-31T04:51:57.599Z,101812.03
2023-01-31T04:54:24.602Z,101807.47
2023-01-31T04:56:51.513Z,101802.88
2023-01-31T04:59:19.703Z,101811.19
2023-01-31T05:01:46.671Z,101797.03
2023-01-31T05:04:13.554Z,101797.03
2023-01-31T05:06:40.456Z,101789.16
2023-01-31T05:09:07.805Z,101792.47
2023-01-31T05:11:34.796Z,101783.91
2023-01-31T05:14:01.829Z,101791.50
2023-01-31T05:16:30.128Z,101785.28
2023-01-31T05:18:57.092Z,101782.66
2023-01-31T05:21:23.966Z,101774.47
2023-01-31T05:23:50.872Z,101781.78
2023-01-31T05:26:18.059Z,101771.28
2023-01-31T05:28:44.929Z,101766.97
2023-01-31T05:31:13.523Z,101776.53
2023-01-31T05:33:41.841Z,101762.41
2023-01-31T05:36:09.228Z,101766.97
2023-01-31T05:38:36.095Z,101769.31
2023-01-31T05:41:03.184Z,101766.53
2023-01-31T05:43:30.075Z,101765.41
2023-01-31T05:45:56.997Z,101766.50
2023-01-31T05:48:23.930Z,101770.13
2023-01-31T05:50:52.165Z,101756.81
2023-01-31T05:53:19.049Z,101765.13
2023-01-31T05:55:47.349Z,101763.19
2023-01-31T05:58:14.179Z,101765.38
2023-01-31T06:00:41.074Z,101772.00
2023-01-31T06:03:09.968Z,101758.69
2023-01-31T06:05:36.888Z,101762.84
2023-01-31T06:08:05.275Z,101756.59
2023-01-31T06:10:32.125Z,101750.34
2023-01-31T06:12:59.743Z,101747.44
2023-01-31T06:15:26.871Z,101748.63
2023-01-31T06:17:53.716Z,101750.81
2023-01-31T06:20:20.616Z,101732.25
2023-01-31T06:22:47.477Z,101740.69
2023-01-31T06:25:15.663Z,101738.03
2023-01-31T06:27:43.054Z,101743.00
2023-01-31T06:30:11.864Z,101737.06
2023-01-31T06:32:38.785Z,101724.88
2023-01-31T06:35:06.518Z,101718.81
2023-01-31T06:37:33.502Z,101715.66
2023-01-31T06:40:00.380Z,101708.59
2023-01-31T06:42:28.703Z,101710.38
2023-01-31T06:44:55.592Z,101703.44
2023-01-31T06:47:23.375Z,101698.19
2023-01-31T06:49:50.241Z,101686.53
2023-01-31T06:52:17.254Z,101688.03
2023-01-31T06:54:44.110Z,101681.66
2023-01-31T06:57:10.945Z,101674.28
2023-01-31T06:59:39.151Z,101656.53
2023-01-31T07:02:06.402Z,101660.13
2023-01-31T07:04:33.243Z,101648.09
2023-01-31T07:07:00.179Z,101648.94
2023-01-31T07:09:27.040Z,101658.50
2023-01-31T07:11:53.939Z,101642.72
2023-01-31T07:14:20.861Z,101651.56
2023-01-31T07:16:49.079Z,101653.25
2023-01-31T07:19:16.177Z,101638.78
2023-01-31T07:21:44.365Z,101632.41
2023-01-31T07:24:11.579Z,101617.44
2023-01-31T07:26:38.479Z,101627.13
2023-01-31T07:29:05.555Z,101631.44
2023-01-31T07:31:32.626Z,101633.59
2023-01-31T07:34:01.217Z,101633.97
2023-01-31T07:36:28.224Z,101627.41
2023-01-31T07:38:57.058Z,101629.75
2023-01-31T07:41:25.211Z,101607.53
2023-01-31T07:43:52.766Z,101624.16
2023-01-31T07:46:20.677Z,101608.81
2023-01-31T07:48:47.630Z,101593.84
2023-01-31T07:51:15.898Z,101605.03
2023-01-31T07:53:43.839Z,101617.25
2023-01-31T07:56:14.404Z,101607.38
2023-01-31T07:58:43.895Z,101583.03
2023-01-31T08:01:34.116Z,101587.66
2023-01-31T08:04:18.367Z,101595.25
2023-01-31T08:06:53.328Z,101567.25
2023-01-31T08:09:20.406Z,101564.31
2023-01-31T08:11:47.385Z,101557.41
2023-01-31T08:14:14.517Z,101552.47
2023-01-31T08:16:41.784Z,101538.03
2023-01-31T08:19:08.791Z,101538.69
2023-01-31T08:21:35.836Z,101537.69
2023-01-31T08:24:04.873Z,101525.22
2023-01-31T08:26:31.856Z,101523.56
2023-01-31T08:28:59.983Z,101510.22
2023-01-31T08:31:28.399Z,101505.78
2023-01-31T08:33:57.252Z,101498.53
2023-01-31T08:36:27.527Z,101494.94
2023-01-31T08:38:55.904Z,101487.03
2023-01-31T08:41:26.652Z,101490.31
2023-01-31T08:43:58.057Z,101491.63
2023-01-31T08:46:27.925Z,101481.78
2023-01-31T08:48:55.651Z,101490.66
2023-01-31T08:51:23.557Z,101492.66
2023-01-31T08:53:50.774Z,101494.44
2023-01-31T08:56:21.086Z,101483.75
2023-01-31T08:58:49.310Z,101481.44
2023-01-31T09:01:19.248Z,101480.84
2023-01-31T09:03:47.865Z,101473.59
2023-01-31T09:06:18.076Z,101475.22
2023-01-31T09:08:45.112Z,101465.34
2023-01-31T09:11:17.144Z,101477.38
2023-01-31T09:13:45.377Z,101468.00
2023-01-31T09:16:14.988Z,101464.06
2023-01-31T09:18:42.985Z,101462.72
2023-01-31T09:21:12.800Z,101467.03
2023-01-31T09:23:42.551Z,101461.59
2023-01-31T09:26:11.303Z,101449.91
2023-01-31T09:28:39.781Z,101464.75
2023-01-31T09:31:10.318Z,101461.75
2023-01-31T09:33:38.600Z,101467.03
2023-01-31T09:36:08.133Z,101455.81
2023-01-31T09:38:36.521Z,101444.97
2023-01-31T09:41:14.877Z,101454.19
2023-01-31T09:43:49.612Z,101447.94
2023-01-31T09:46:23.871Z,101448.59
2023-01-31T09:48:55.956Z,101447.75
2023-01-31T09:51:24.099Z,101437.06
2023-01-31T09:53:51.236Z,101443.00
2023-01-31T09:56:34.834Z,101441.00
2023-01-31T09:59:18.610Z,101433.75
2023-01-31T10:02:04.120Z,101422.22
2023-01-31T10:04:54.126Z,101410.38
2023-01-31T10:07:32.037Z,101403.28
2023-01-31T10:10:13.913Z,101397.19
2023-01-31T10:12:47.976Z,101400.63
2023-01-31T10:15:28.092Z,101400.50
2023-01-31T10:18:02.258Z,101400.50
2023-01-31T10:20:38.343Z,101389.13
2023-01-31T10:23:13.100Z,101392.25
2023-01-31T10:25:48.713Z,101390.59
2023-01-31T10:28:22.044Z,101378.75
2023-01-31T10:30:58.941Z,101391.09
2023-01-31T10:33:38.842Z,101386.66
2023-01-31T10:36:22.529Z,101381.69
2023-01-31T10:39:02.741Z,101378.88
2023-01-31T10:41:52.397Z,101374.44
2023-01-31T10:44:27.892Z,101384.34
2023-01-31T10:46:59.502Z,101376.91
2023-01-31T10:49:28.181Z,101367.84
2023-01-31T10:52:32.908Z,101360.94
2023-01-31T10:55:18.475Z,101364.06
2023-01-31T10:57:45.621Z,101344.44
2023-01-31T11:00:20.866Z,101342.66
2023-01-31T11:02:48.460Z,101352.03
2023-01-31T11:05:20.750Z,101342.66
2023-01-31T11:07:50.325Z,101340.50
2023-01-31T11:10:27.298Z,101337.88
2023-01-31T11:12:57.774Z,101328.97
2023-01-31T11:15:29.030Z,101332.59
2023-01-31T11:18:00.724Z,101322.06
2023-01-31T11:20:32.251Z,101331.59
2023-01-31T11:23:03.112Z,101338.69
2023-01-31T11:25:33.805Z,101334.56
2023-01-31T11:28:18.128Z,101334.56
2023-01-31T11:30:50.428Z,101334.56
2023-01-31T11:33:41.317Z,101332.75
2023-01-31T11:36:11.092Z,101327.16
2023-01-31T11:38:39.486Z,101313.66
2023-01-31T11:41:33.722Z,101322.72
2023-01-31T11:44:15.693Z,101307.53
2023-01-31T11:46:48.705Z,101297.50
2023-01-31T11:49:27.126Z,101298.00
2023-01-31T11:51:54.438Z,101310.03
2023-01-31T11:54:28.242Z,101309.03
2023-01-31T11:56:56.331Z,101301.63
2023-01-31T11:59:30.109Z,101301.94
2023-01-31T12:02:01.309Z,101306.53
2023-01-31T12:04:39.930Z,101288.69
2023-01-31T12:07:23.322Z,101297.28
2023-01-31T12:09:52.131Z,101300.91
2023-01-31T12:12:29.909Z,101287.34
2023-01-31T12:15:02.056Z,101290.47
2023-01-31T12:17:34.771Z,101292.78
2023-01-31T12:20:28.803Z,101285.66
2023-01-31T12:23:10.034Z,101293.91
2023-01-31T12:25:54.810Z,101295.38
2023-01-31T12:28:37.346Z,101289.25
2023-01-31T12:31:29.413Z,101292.91
2023-01-31T12:34:16.737Z,101291.75
2023-01-31T12:37:20.160Z,101296.22
2023-01-31T12:40:24.603Z,101294.06
2023-01-31T12:42:59.752Z,101288.91
2023-01-31T12:45:57.868Z,101277.00
2023-01-31T12:48:58.971Z,101276.03
2023-01-31T12:51:44.817Z,101277.72
2023-01-31T12:54:38.164Z,101272.06
2023-01-31T12:57:27.526Z,101269.38
2023-01-31T13:00:25.016Z,101260.50
2023-01-31T13:03:25.917Z,101247.09
2023-01-31T13:06:00.335Z,101239.94
2023-01-31T13:08:31.408Z,101246.19
2023-01-31T13:11:06.209Z,101242.84
2023-01-31T13:13:42.000Z,101244.97
2023-01-31T13:16:20.721Z,101239.50
2023-01-31T13:18:52.274Z,101245.59
2023-01-31T13:21:26.943Z,101233.88
2023-01-31T13:24:00.545Z,101240.13
2023-01-31T13:26:32.871Z,101232.22
2023-01-31T13:29:09.945Z,101224.44
2023-01-31T13:31:46.340Z,101230.50
2023-01-31T13:34:22.357Z,101226.25
2023-01-31T13:36:56.156Z,101230.88
2023-01-31T13:39:30.648Z,101217.50
2023-01-31T13:41:58.206Z,101219.94
2023-01-31T13:44:25.594Z,101208.38
2023-01-31T13:47:01.043Z,101225.72
2023-01-31T13:49:34.991Z,101217.44
2023-01-31T13:52:11.220Z,101211.97
2023-01-31T13:54:46.037Z,101215.59
2023-01-31T13:57:26.543Z,101212.50
2023-01-31T14:00:01.102Z,101198.31
2023-01-31T14:02:31.043Z,101203.44
2023-01-31T14:05:27.060Z,101201.00
2023-01-31T14:08:59.461Z,101207.63
2023-01-31T14:11:43.005Z,101218.31
2023-01-31T14:14:37.709Z,101216.31
2023-01-31T14:17:06.788Z,101214.59
2023-01-31T14:20:06.201Z,101212.16
2023-01-31T14:22:35.310Z,101213.91
2023-01-31T14:25:06.918Z,101209.41
2023-01-31T14:27:46.488Z,101212.53
2023-01-31T14:30:42.679Z,101217.63
2023-01-31T14:33:29.014Z,101206.03
2023-01-31T14:36:37.097Z,101212.97
2023-01-31T14:39:46.108Z,101220.69
2023-01-31T14:43:09.801Z,101220.34
2023-01-31T14:46:16.935Z,101214.72
2023-01-31T14:49:23.958Z,101196.84
2023-01-31T14:52:21.884Z,101200.78
2023-01-31T14:55:12.121Z,101204.72
2023-01-31T14:57:43.068Z,101196.88
2023-01-31T15:00:23.625Z,101204.25
2023-01-31T15:03:03.327Z,101204.53
2023-01-31T15:05:47.619Z,101202.53
2023-01-31T15:08:39.758Z,101186.13
2023-01-31T15:11:13.906Z,101193.50
2023-01-31T15:13:49.035Z,101188.41
2023-01-31T15:16:23.945Z,101194.13
2023-01-31T15:18:59.947Z,101198.72
2023-01-31T15:21:32.328Z,101184.31
2023-01-31T15:24:02.531Z,101205.28
2023-01-31T15:26:35.401Z,101199.63
2023-01-31T15:29:04.682Z,101190.50
2023-01-31T15:31:40.988Z,101195.59
2023-01-31T15:34:20.486Z,101204.38
2023-01-31T15:37:02.538Z,101198.44
2023-01-31T15:39:38.522Z,101215.09
2023-01-31T15:42:24.587Z,101208.19
2023-01-31T15:45:11.551Z,101203.34
2023-01-31T15:47:38.521Z,101211.47
2023-01-31T15:50:15.581Z,101233.00
2023-01-31T15:52:42.631Z,101213.47
2023-01-31T15:55:14.687Z,101225.06
2023-01-31T15:57:47.881Z,101227.69
2023-01-31T16:00:21.787Z,101259.44
2023-01-31T16:02:49.569Z,101246.84
2023-01-31T16:05:22.275Z,101235.47
2023-01-31T16:07:50.016Z,101234.00
2023-01-31T16:10:19.182Z,101240.66
2023-01-31T16:12:50.810Z,101249.31
2023-01-31T16:15:23.160Z,101237.63
2023-01-31T16:17:51.671Z,101233.09
2023-01-31T16:20:44.276Z,101234.34
2023-01-31T16:23:28.727Z,101237.72
2023-01-31T16:26:06.087Z,101234.78
2023-01-31T16:28:40.824Z,101241.44
2023-01-31T16:31:11.551Z,101240.78
2023-01-31T16:33:47.071Z,101237.03
2023-01-31T16:36:18.218Z,101242.47
2023-01-31T16:38:59.096Z,101239.59
2023-01-31T16:41:46.469Z,101237.25
2023-01-31T16:44:18.475Z,101237.75
2023-01-31T16:46:48.020Z,101239.75
2023-01-31T16:49:21.926Z,101248.31
2023-01-31T16:51:50.066Z,101256.91
2023-01-31T16:54:23.254Z,101263.81
2023-01-31T16:59:49.257Z,101270.88
2023-01-31T17:02:22.453Z,101258.94
2023-01-31T17:04:52.869Z,101263.03
2023-01-31T17:07:23.839Z,101271.59
2023-01-31T17:09:56.478Z,101278.34
2023-01-31T17:12:27.407Z,101291.41
2023-01-31T17:15:00.191Z,101295.25
2023-01-31T17:17:32.826Z,101283.84
2023-01-31T17:20:00.039Z,101289.31
2023-01-31T17:22:27.020Z,101292.31
2023-01-31T17:24:53.944Z,101309.16
2023-01-31T17:27:21.830Z,101311.16
2023-01-31T17:29:50.381Z,101303.41
2023-01-31T17:32:21.084Z,101308.22
2023-01-31T17:34:48.875Z,101307.38
2023-01-31T17:37:20.786Z,101300.47
2023-01-31T17:39:50.686Z,101305.75
2023-01-31T17:42:21.399Z,101303.94
2023-01-31T17:44:48.296Z,101301.31
2023-01-31T17:47:15.671Z,101322.59
2023-01-31T17:49:45.271Z,101313.84
2023-01-31T17:52:12.310Z,101311.59
2023-01-31T17:54:39.420Z,101318.88
2023-01-31T17:57:06.301Z,101316.53
2023-01-31T17:59:33.213Z,101320.53
2023-01-31T18:02:00.604Z,101320.06
2023-01-31T18:04:27.545Z,101332.13
2023-01-31T18:06:55.822Z,101325.56
2023-01-31T18:09:22.913Z,101337.63
2023-01-31T18:11:49.894Z,101338.81
2023-01-31T18:14:16.995Z,101344.47
2023-01-31T18:16:43.912Z,101340.16
2023-01-31T18:19:11.695Z,101326.94
2023-01-31T18:21:41.482Z,101343.13
2023-01-31T18:24:15.244Z,101338.88
2023-01-31T18:26:44.410Z,101348.16
2023-01-31T18:29:19.181Z,101335.94
2023-01-31T18:31:46.701Z,101367.31
2023-01-31T18:34:13.627Z,101341.25
2023-01-31T18:36:40.821Z,101331.03
2023-01-31T18:39:07.902Z,101352.84
2023-01-31T18:41:36.148Z,101341.63
2023-01-31T18:44:03.205Z,101348.72
2023-01-31T18:46:30.381Z,101339.00
2023-01-31T18:48:57.452Z,101346.72
2023-01-31T18:51:24.494Z,101330.88
2023-01-31T18:53:51.398Z,101347.56
2023-01-31T18:56:20.977Z,101340.66
2023-01-31T18:58:50.161Z,101340.66
2023-01-31T19:01:19.594Z,101339.81
2023-01-31T19:03:50.044Z,101337.31
2023-01-31T19:06:21.530Z,101337.31
2023-01-31T19:08:50.661Z,101342.59
2023-01-31T19:11:20.203Z,101334.88
2023-01-31T19:13:48.888Z,101340.97
2023-01-31T19:16:18.795Z,101337.50
2023-01-31T19:18:46.308Z,101343.31
2023-01-31T19:21:18.120Z,101351.56
2023-01-31T19:23:45.839Z,101345.63
2023-01-31T19:26:15.842Z,101345.97
2023-01-31T19:28:43.910Z,101347.97
2023-01-31T19:31:14.902Z,101336.94
2023-01-31T19:33:42.269Z,101343.38
2023-01-31T19:36:10.780Z,101341.91
2023-01-31T19:38:38.064Z,101340.41
2023-01-31T19:41:07.026Z,101334.66
2023-01-31T19:43:33.949Z,101352.47
2023-01-31T19:46:01.458Z,101350.16
2023-01-31T19:48:30.059Z,101359.91
2023-01-31T19:50:57.870Z,101351.34
2023-01-31T19:53:25.715Z,101352.66
2023-01-31T19:55:56.251Z,101344.41
2023-01-31T19:58:30.694Z,101366.22
2023-01-31T20:00:58.165Z,101367.38
2023-01-31T20:03:25.333Z,101357.66
2023-01-31T20:05:53.703Z,101359.63
2023-01-31T20:08:20.760Z,101368.53
2023-01-31T20:10:47.705Z,101366.72
2023-01-31T20:13:14.610Z,101376.25
2023-01-31T20:15:41.516Z,101357.66
2023-01-31T20:18:08.397Z,101367.19
2023-01-31T20:20:35.295Z,101361.25
2023-01-31T20:23:03.792Z,101359.63
2023-01-31T20:25:30.829Z,101357.97
2023-01-31T20:27:57.984Z,101361.59
2023-01-31T20:30:24.902Z,101358.94
2023-01-31T20:32:51.812Z,101364.22
2023-01-31T20:35:19.113Z,101352.53
2023-01-31T20:37:46.052Z,101369.50
2023-01-31T20:40:14.523Z,101363.91
2023-01-31T20:42:41.610Z,101351.69
2023-01-31T20:45:09.723Z,101350.72
2023-01-31T20:47:36.593Z,101353.34
2023-01-31T20:50:04.489Z,101354.19
2023-01-31T20:52:32.866Z,101352.50
2023-01-31T20:54:59.768Z,101358.13
2023-01-31T20:57:28.209Z,101350.84
2023-01-31T20:59:55.416Z,101352.34
2023-01-31T21:02:22.505Z,101358.94
2023-01-31T21:04:49.392Z,101355.94
2023-01-31T21:07:17.497Z,101362.56
2023-01-31T21:09:44.446Z,101364.84
2023-01-31T21:12:11.479Z,101356.59
2023-01-31T21:14:39.647Z,101348.66
2023-01-31T21:17:06.574Z,101352.97
2023-01-31T21:19:33.451Z,101348.53
2023-01-31T21:22:00.311Z,101345.69
2023-01-31T21:24:27.247Z,101358.56
2023-01-31T21:26:54.362Z,101363.16
2023-01-31T21:29:21.342Z,101353.63
2023-01-31T21:31:49.800Z,101346.69
2023-01-31T21:34:16.850Z,101367.13
2023-01-31T21:36:45.809Z,101349.50
2023-01-31T21:39:13.034Z,101348.53
2023-01-31T21:41:58.757Z,101342.78
2023-01-31T21:44:25.701Z,101353.34
2023-01-31T21:46:53.981Z,101359.13
2023-01-31T21:49:20.967Z,101357.00
2023-01-31T21:51:47.868Z,101355.69
2023-01-31T21:54:14.972Z,101359.31
2023-01-31T21:56:41.916Z,101350.41
2023-01-31T21:59:08.836Z,101360.59
2023-01-31T22:01:36.634Z,101356.66
2023-01-31T22:04:05.147Z,101364.91
2023-01-31T22:06:38.722Z,101357.00
2023-01-31T22:09:09.406Z,101363.56
2023-01-31T22:11:38.584Z,101353.38
2023-01-31T22:14:08.241Z,101354.34
2023-01-31T22:16:36.401Z,101355.34
2023-01-31T22:19:05.018Z,101359.31
2023-01-31T22:21:36.291Z,101353.56
2023-01-31T22:24:06.580Z,101346.63
2023-01-31T22:26:38.270Z,101342.50
2023-01-31T22:29:07.776Z,101336.25
2023-01-31T22:31:35.592Z,101333.63
2023-01-31T22:34:06.085Z,101328.63
2023-01-31T22:36:34.071Z,101333.25
2023-01-31T22:39:01.622Z,101341.16
2023-01-31T22:41:28.875Z,101353.69
2023-01-31T22:43:56.416Z,101352.03
2023-01-31T22:46:26.054Z,101350.38
2023-01-31T22:48:55.172Z,101347.91
2023-01-31T22:51:29.180Z,101338.72
2023-01-31T22:53:57.901Z,101338.53
2023-01-31T22:56:28.327Z,101346.63
2023-01-31T22:58:57.542Z,101345.78
2023-01-31T23:01:27.558Z,101335.25
2023-01-31T23:03:57.828Z,101337.22
2023-01-31T23:06:27.606Z,101333.94
2023-01-31T23:08:56.990Z,101331.44
2023-01-31T23:11:25.067Z,101333.28
2023-01-31T23:13:53.057Z,101330.66
2023-01-31T23:16:46.991Z,101330.66
2023-01-31T23:19:16.248Z,101333.59
2023-01-31T23:21:45.070Z,101335.22
2023-01-31T23:24:14.435Z,101336.88
2023-01-31T23:26:41.735Z,101322.41
2023-01-31T23:29:09.013Z,101322.22
2023-01-31T23:31:36.254Z,101321.41
2023-01-31T23:34:05.917Z,101320.41
2023-01-31T23:36:33.305Z,101319.78
2023-01-31T23:39:01.718Z,101326.00
2023-01-31T23:41:28.641Z,101323.38
2023-01-31T23:43:55.523Z,101320.75
2023-01-31T23:46:22.505Z,101317.47
2023-01-31T23:48:49.406Z,101322.72
2023-01-31T23:51:16.314Z,101322.41
2023-01-31T23:53:43.190Z,101316.97
2023-01-31T23:56:11.400Z,101300.97
2023-01-31T23:58:38.269Z,101307.38
